Time;durP1;ratioP1;P1;durP2;ratioP2;P2;SDS_P1;SDS_P2;PMS_P1;PMS_P2;Temp;Humidity;BMP_temperature;BMP_pressure;BME280_temperature;BME280_humidity;BME280_pressure;Samples;Min_cycle;Max_cycle;Signal;HPM_P1;HPM_P2
2023/05/07 00:02:15;;;;;;;1.63;1.10;;;14.30;99.90;;;;;;5072865;28;20481;-83
2023/05/07 00:04:42;;;;;;;2.50;1.20;;;14.20;99.90;;;;;;5073080;28;20454;-83
2023/05/07 00:07:08;;;;;;;1.13;1.03;;;14.20;99.90;;;;;;5073095;28;20442;-83
2023/05/07 00:09:37;;;;;;;2.20;1.30;;;14.10;99.90;;;;;;5073292;28;20450;-83
2023/05/07 00:12:04;;;;;;;1.00;1.00;;;14.10;99.90;;;;;;5073043;28;20476;-83
2023/05/07 00:14:31;;;;;;;1.70;1.20;;;14.10;99.90;;;;;;5073241;28;20794;-83
2023/05/07 00:16:58;;;;;;;1.13;0.90;;;14.10;99.90;;;;;;5073173;28;20490;-83
2023/05/07 00:19:25;;;;;;;1.43;1.33;;;14.10;99.90;;;;;;5073186;28;20453;-83
2023/05/07 00:21:53;;;;;;;1.57;1.20;;;14.10;99.90;;;;;;5072834;28;20469;-83
2023/05/07 00:24:20;;;;;;;0.90;0.90;;;14.00;99.90;;;;;;5073040;28;20487;-83
2023/05/07 00:26:48;;;;;;;1.63;1.53;;;14.00;99.90;;;;;;5072765;28;20437;-84
2023/05/07 00:29:15;;;;;;;1.17;0.90;;;14.00;99.90;;;;;;5072909;28;20458;-83
2023/05/07 00:31:41;;;;;;;1.40;1.17;;;14.00;99.90;;;;;;5072809;28;20461;-83
2023/05/07 00:34:08;;;;;;;1.20;1.03;;;14.00;99.90;;;;;;5072834;28;20453;-83
2023/05/07 00:36:35;;;;;;;1.60;1.00;;;14.00;99.90;;;;;;5072456;28;20800;-83
2023/05/07 00:39:03;;;;;;;0.97;0.97;;;14.00;99.90;;;;;;5072811;28;20503;-84
2023/05/07 00:41:31;;;;;;;1.30;1.20;;;13.90;99.90;;;;;;5072669;28;20473;-83
2023/05/07 00:43:59;;;;;;;1.30;1.03;;;13.90;99.90;;;;;;5073121;28;20514;-83
2023/05/07 00:46:26;;;;;;;1.47;1.37;;;13.90;99.90;;;;;;5076411;28;20437;-84
2023/05/07 00:48:54;;;;;;;1.67;1.40;;;13.90;99.90;;;;;;5076332;28;20477;-83
2023/05/07 00:51:21;;;;;;;1.10;1.00;;;13.90;99.90;;;;;;5076167;28;20481;-83
2023/05/07 00:53:48;;;;;;;1.53;1.30;;;13.90;99.90;;;;;;5076287;28;20456;-83
2023/05/07 00:56:15;;;;;;;2.03;1.13;;;13.80;99.90;;;;;;5076214;28;20445;-84
2023/05/07 00:58:42;;;;;;;1.43;1.30;;;13.80;99.90;;;;;;5076069;28;20524;-83
2023/05/07 01:01:10;;;;;;;2.53;1.57;;;13.80;99.90;;;;;;5075915;28;20479;-83
2023/05/07 01:03:37;;;;;;;1.00;0.90;;;13.80;99.90;;;;;;5075999;28;20530;-84
2023/05/07 01:06:05;;;;;;;0.87;0.87;;;13.80;99.90;;;;;;5076005;28;20456;-84
2023/05/07 01:08:34;;;;;;;0.93;0.90;;;13.80;99.90;;;;;;5075683;28;20441;-83
2023/05/07 01:11:01;;;;;;;1.43;1.30;;;13.80;99.90;;;;;;5075910;28;20452;-83
2023/05/07 01:13:29;;;;;;;1.53;1.00;;;13.80;99.90;;;;;;5075601;28;20838;-84
2023/05/07 01:15:56;;;;;;;1.63;1.27;;;13.80;99.90;;;;;;5075834;28;20442;-84
2023/05/07 01:18:25;;;;;;;0.90;0.90;;;13.80;99.90;;;;;;5075653;28;20492;-83
2023/05/07 01:20:52;;;;;;;1.37;1.27;;;13.80;99.90;;;;;;5075386;28;20452;-83
2023/05/07 01:23:20;;;;;;;2.17;1.77;;;13.80;99.90;;;;;;5075309;28;21008;-83
2023/05/07 01:25:52;;;;;;;1.53;1.23;;;13.80;99.90;;;;;;5075322;28;20945;-84
2023/05/07 01:28:19;;;;;;;1.53;1.43;;;13.70;99.90;;;;;;5075599;28;20488;-84
2023/05/07 01:30:48;;;;;;;2.00;1.50;;;13.70;99.90;;;;;;5075593;28;20454;-84
2023/05/07 01:33:19;;;;;;;1.43;0.93;;;13.70;99.90;;;;;;5075620;28;20465;-84
2023/05/07 01:35:51;;;;;;;3.00;1.80;;;13.70;99.90;;;;;;5075206;28;20425;-83
2023/05/07 01:38:18;;;;;;;2.57;1.33;;;13.70;99.90;;;;;;5075116;28;21007;-83
2023/05/07 01:40:47;;;;;;;1.63;1.30;;;13.60;99.90;;;;;;5075333;28;20450;-84
2023/05/07 01:43:14;;;;;;;2.77;1.50;;;13.60;99.90;;;;;;5075301;28;20465;-84
2023/05/07 01:45:41;;;;;;;3.73;1.60;;;13.60;99.90;;;;;;5075276;28;20450;-84
2023/05/07 01:48:10;;;;;;;0.90;0.90;;;13.60;99.90;;;;;;5075247;28;20560;-84
2023/05/07 01:50:38;;;;;;;1.13;1.00;;;13.60;99.90;;;;;;5075185;28;20524;-84
2023/05/07 01:53:04;;;;;;;1.70;1.20;;;13.60;99.90;;;;;;5075087;28;20461;-84
2023/05/07 01:55:31;;;;;;;2.20;1.30;;;13.60;99.90;;;;;;5074167;28;20457;-84
2023/05/07 01:57:59;;;;;;;3.60;1.43;;;13.50;99.90;;;;;;5074984;28;20530;-83
2023/05/07 02:00:27;;;;;;;1.40;1.27;;;13.50;99.90;;;;;;5074959;28;20454;-84
2023/05/07 02:02:53;;;;;;;1.20;0.97;;;13.40;99.90;;;;;;5074739;28;20520;-84
2023/05/07 02:05:20;;;;;;;2.20;1.30;;;13.40;99.90;;;;;;5074526;28;20960;-83
2023/05/07 02:07:47;;;;;;;1.43;1.17;;;13.40;99.90;;;;;;5074914;28;20433;-83
2023/05/07 02:10:14;;;;;;;2.57;1.30;;;13.40;99.90;;;;;;5074795;28;20448;-83
2023/05/07 02:12:40;;;;;;;1.90;1.17;;;13.40;99.90;;;;;;5074896;28;20462;-83
2023/05/07 02:15:10;;;;;;;2.43;1.23;;;13.30;99.90;;;;;;5074393;28;20496;-83
2023/05/07 02:17:40;;;;;;;1.27;1.20;;;13.30;99.90;;;;;;5074332;28;20477;-84
2023/05/07 02:20:13;;;;;;;1.00;0.90;;;13.40;99.90;;;;;;5074685;28;20445;-84
2023/05/07 02:22:39;;;;;;;0.90;0.90;;;13.30;99.90;;;;;;5074653;28;20501;-83
2023/05/07 02:25:06;;;;;;;4.30;1.40;;;13.30;99.90;;;;;;5074557;28;20449;-84
2023/05/07 02:27:33;;;;;;;3.13;1.30;;;13.30;99.90;;;;;;5074107;28;20830;-84
2023/05/07 02:30:00;;;;;;;1.60;1.50;;;13.30;99.90;;;;;;5074471;28;20493;-84
2023/05/07 02:32:28;;;;;;;1.67;1.57;;;13.20;99.90;;;;;;5073996;28;20969;-84
2023/05/07 02:34:54;;;;;;;2.27;1.77;;;13.20;99.90;;;;;;5074813;28;20449;-84
2023/05/07 02:37:21;;;;;;;1.23;1.13;;;13.20;99.90;;;;;;5074156;28;20481;-84
2023/05/07 02:39:48;;;;;;;2.33;2.20;;;13.20;99.90;;;;;;5074208;28;20445;-84
2023/05/07 02:42:14;;;;;;;1.57;1.33;;;13.20;99.90;;;;;;5073807;28;20472;-84
2023/05/07 02:44:41;;;;;;;3.20;1.73;;;13.10;99.90;;;;;;5074150;28;20445;-84
2023/05/07 02:47:09;;;;;;;1.70;1.60;;;13.10;99.90;;;;;;5073793;28;20441;-84
2023/05/07 02:49:37;;;;;;;1.63;1.43;;;13.00;99.90;;;;;;5073725;28;21023;-84
2023/05/07 02:52:04;;;;;;;1.80;1.70;;;13.00;99.90;;;;;;5074348;28;20476;-84
2023/05/07 02:54:31;;;;;;;4.10;1.30;;;12.90;99.90;;;;;;5073902;28;20469;-84
2023/05/07 02:56:57;;;;;;;1.63;1.30;;;12.90;99.90;;;;;;5073875;28;20454;-84
2023/05/07 02:59:26;;;;;;;5.67;1.40;;;12.80;99.90;;;;;;5073850;28;20493;-84
2023/05/07 03:01:52;;;;;;;1.53;1.10;;;12.90;99.90;;;;;;5073641;28;20940;-84
2023/05/07 03:04:20;;;;;;;1.60;1.50;;;12.80;99.90;;;;;;5074271;28;20805;-84
2023/05/07 03:06:48;;;;;;;3.60;2.30;;;12.80;99.90;;;;;;5073298;28;20937;-83
2023/05/07 03:09:14;;;;;;;5.23;1.30;;;12.80;99.90;;;;;;5073411;28;20442;-84
2023/05/07 03:11:41;;;;;;;2.47;1.30;;;12.70;99.90;;;;;;5073572;28;20477;-84
2023/05/07 03:14:08;;;;;;;9.83;1.87;;;12.70;99.90;;;;;;5073761;28;20437;-84
2023/05/07 03:16:35;;;;;;;1.90;1.70;;;12.70;99.90;;;;;;5073628;28;20446;-84
2023/05/07 03:19:01;;;;;;;1.83;1.30;;;12.60;99.90;;;;;;5073654;28;20486;-83
2023/05/07 03:21:28;;;;;;;1.47;1.13;;;12.60;99.90;;;;;;5073403;28;20789;-83
2023/05/07 03:23:56;;;;;;;3.27;1.53;;;12.60;99.90;;;;;;5073539;28;20450;-84
2023/05/07 03:26:23;;;;;;;1.27;1.17;;;12.60;99.90;;;;;;5073494;28;20465;-84
2023/05/07 03:28:49;;;;;;;6.10;1.10;;;12.60;99.90;;;;;;5073186;28;20964;-84
2023/05/07 03:31:16;;;;;;;1.53;1.43;;;12.50;99.90;;;;;;5073742;28;20446;-84
2023/05/07 03:33:52;;;;;;;2.13;1.20;;;12.50;99.90;;;;;;5073099;28;20834;-84
2023/05/07 03:36:18;;;;;;;1.57;1.20;;;12.60;99.90;;;;;;5073469;28;20430;-84
2023/05/07 03:38:45;;;;;;;1.63;1.43;;;12.60;99.90;;;;;;5073272;28;20481;-84
2023/05/07 03:41:13;;;;;;;1.60;1.07;;;12.60;99.90;;;;;;5073042;28;20448;-83
2023/05/07 03:43:40;;;;;;;2.73;1.77;;;12.60;99.90;;;;;;5073476;28;20481;-84
2023/05/07 03:46:07;;;;;;;1.80;1.00;;;12.60;99.90;;;;;;5073287;28;20449;-84
2023/05/07 03:48:33;;;;;;;3.73;0.97;;;12.60;99.90;;;;;;5073325;28;20442;-84
2023/05/07 03:51:00;;;;;;;1.43;1.33;;;12.60;99.90;;;;;;5073175;28;20448;-83
2023/05/07 03:53:27;;;;;;;1.30;1.10;;;12.50;99.90;;;;;;5073174;28;20480;-83
2023/05/07 03:55:53;;;;;;;1.00;0.83;;;12.50;99.90;;;;;;5072876;28;20936;-84
2023/05/07 03:58:21;;;;;;;1.27;1.10;;;12.50;99.90;;;;;;5073105;28;20485;-83
2023/05/07 04:00:48;;;;;;;1.33;1.07;;;12.50;99.90;;;;;;5072985;28;20809;-84
2023/05/07 04:03:15;;;;;;;2.37;1.10;;;12.50;99.90;;;;;;5073090;28;20469;-84
2023/05/07 04:05:42;;;;;;;1.03;0.93;;;12.50;99.90;;;;;;5073151;28;20452;-84
2023/05/07 04:08:08;;;;;;;1.13;1.00;;;12.50;99.90;;;;;;5073174;28;20465;-84
2023/05/07 04:10:35;;;;;;;1.20;1.10;;;12.50;99.90;;;;;;5073067;28;20445;-84
2023/05/07 04:13:02;;;;;;;1.97;1.87;;;12.50;99.90;;;;;;5073035;28;20469;-84
2023/05/07 04:15:30;;;;;;;1.73;1.50;;;12.40;99.90;;;;;;5073210;28;20434;-84
2023/05/07 04:17:57;;;;;;;1.10;1.00;;;12.40;99.90;;;;;;5073067;28;20484;-84
2023/05/07 04:20:24;;;;;;;2.73;1.60;;;12.40;99.90;;;;;;5076038;28;20442;-84
2023/05/07 04:22:51;;;;;;;1.20;1.10;;;12.40;99.90;;;;;;5076721;28;21008;-84
2023/05/07 04:25:18;;;;;;;3.47;1.20;;;12.40;99.90;;;;;;5076794;28;20445;-84
2023/05/07 04:27:45;;;;;;;4.77;1.40;;;12.50;99.90;;;;;;5076737;28;20450;-84
2023/05/07 04:30:13;;;;;;;2.60;1.80;;;12.50;99.90;;;;;;5077335;28;20471;-84
2023/05/07 04:32:41;;;;;;;9.77;1.90;;;12.50;99.90;;;;;;5076553;28;20474;-84
2023/05/07 04:35:08;;;;;;;1.27;1.17;;;12.50;99.90;;;;;;5076575;28;20445;-84
2023/05/07 04:37:35;;;;;;;1.63;1.53;;;12.50;99.90;;;;;;5076554;28;20450;-84
2023/05/07 04:40:03;;;;;;;2.57;1.50;;;12.50;99.90;;;;;;5076257;28;20984;-84
2023/05/07 04:42:29;;;;;;;2.03;1.80;;;12.40;99.90;;;;;;5076426;28;20815;-84
2023/05/07 04:44:56;;;;;;;2.73;1.27;;;12.40;99.90;;;;;;5076515;28;20445;-84
2023/05/07 04:47:23;;;;;;;3.23;1.93;;;12.40;99.90;;;;;;5076095;28;20449;-84
2023/05/07 04:49:51;;;;;;;1.43;1.33;;;12.40;99.90;;;;;;5076430;28;20445;-84
2023/05/07 04:52:18;;;;;;;7.87;2.27;;;12.40;99.90;;;;;;5076398;28;20478;-84
2023/05/07 04:54:44;;;;;;;2.20;1.50;;;12.40;99.90;;;;;;5076151;28;20449;-84
2023/05/07 04:57:11;;;;;;;2.27;1.60;;;12.50;99.90;;;;;;5076404;28;20456;-84
2023/05/07 04:59:38;;;;;;;3.20;2.20;;;12.50;99.90;;;;;;5076340;28;20485;-84
2023/05/07 05:02:05;;;;;;;3.57;1.60;;;12.60;99.90;;;;;;5075606;28;21011;-84
2023/05/07 05:04:32;;;;;;;1.40;1.30;;;12.70;99.90;;;;;;5075773;28;20941;-84
2023/05/07 05:07:00;;;;;;;1.57;1.33;;;12.80;99.90;;;;;;5076144;28;20449;-84
2023/05/07 05:09:27;;;;;;;1.27;1.20;;;12.80;99.90;;;;;;5076053;28;20450;-84
2023/05/07 05:11:53;;;;;;;2.97;2.03;;;12.90;99.90;;;;;;5075859;28;20464;-84
2023/05/07 05:14:20;;;;;;;1.37;1.20;;;13.00;99.90;;;;;;5075704;28;20449;-84
2023/05/07 05:16:47;;;;;;;2.47;2.10;;;13.10;99.90;;;;;;5075937;28;20454;-84
2023/05/07 05:19:13;;;;;;;1.67;1.40;;;13.30;99.90;;;;;;5076046;28;20481;-84
2023/05/07 05:21:40;;;;;;;3.03;1.13;;;13.40;99.90;;;;;;5075695;28;20480;-84
2023/05/07 05:24:09;;;;;;;2.37;1.57;;;13.60;99.90;;;;;;5075443;28;20445;-84
2023/05/07 05:26:35;;;;;;;1.70;1.20;;;13.80;99.90;;;;;;5075496;28;20445;-84
2023/05/07 05:29:02;;;;;;;1.97;1.20;;;14.00;99.90;;;;;;5075658;28;20446;-84
2023/05/07 05:31:29;;;;;;;1.80;1.70;;;14.10;99.90;;;;;;5074188;28;20465;-84
2023/05/07 05:33:56;;;;;;;1.33;1.10;;;14.10;99.90;;;;;;5075542;28;20849;-85
2023/05/07 05:36:23;;;;;;;3.23;1.40;;;14.20;99.90;;;;;;5075489;28;20449;-84
2023/05/07 05:38:50;;;;;;;1.93;1.70;;;14.20;99.90;;;;;;5075487;28;20481;-84
2023/05/07 05:41:18;;;;;;;2.07;1.87;;;14.30;99.90;;;;;;5075090;28;20960;-84
2023/05/07 05:43:44;;;;;;;3.07;1.87;;;14.30;99.90;;;;;;5075157;28;20434;-84
2023/05/07 05:46:11;;;;;;;1.50;1.40;;;14.30;99.90;;;;;;5075265;28;20457;-84
2023/05/07 05:48:38;;;;;;;2.60;1.73;;;14.40;99.90;;;;;;5075273;28;20445;-84
2023/05/07 05:51:05;;;;;;;1.90;1.57;;;14.40;99.90;;;;;;5075156;28;20453;-84
2023/05/07 05:53:32;;;;;;;1.67;1.57;;;14.50;99.90;;;;;;5075033;28;20476;-84
2023/05/07 05:55:59;;;;;;;1.03;0.93;;;14.70;99.90;;;;;;5075175;28;20452;-84
2023/05/07 05:58:27;;;;;;;1.43;1.10;;;15.10;99.90;;;;;;5075052;28;20492;-86
2023/05/07 06:00:54;;;;;;;1.40;1.00;;;15.40;99.90;;;;;;5075006;28;20452;-86
2023/05/07 06:03:21;;;;;;;2.00;1.13;;;15.70;99.90;;;;;;5075098;28;20465;-86
2023/05/07 06:05:47;;;;;;;0.80;0.80;;;16.10;99.90;;;;;;5075759;28;20437;-86
2023/05/07 06:08:14;;;;;;;3.03;1.37;;;16.50;99.90;;;;;;5074718;28;20932;-86
2023/05/07 06:10:41;;;;;;;1.13;1.03;;;16.80;99.90;;;;;;5074718;28;20527;-86
2023/05/07 06:13:08;;;;;;;1.10;1.00;;;17.10;99.90;;;;;;5076332;28;20472;-86
2023/05/07 06:15:36;;;;;;;1.60;1.27;;;17.20;99.90;;;;;;5074886;28;20456;-86
2023/05/07 06:18:03;;;;;;;1.50;1.40;;;17.40;99.90;;;;;;5074558;28;20430;-86
2023/05/07 06:20:29;;;;;;;1.27;1.17;;;17.80;99.90;;;;;;5074720;28;20556;-86
2023/05/07 06:22:56;;;;;;;1.73;1.33;;;18.20;99.90;;;;;;5074602;28;20469;-86
2023/05/07 06:25:23;;;;;;;1.10;1.00;;;18.60;99.90;;;;;;5074815;28;20931;-86
2023/05/07 06:27:49;;;;;;;1.50;1.40;;;19.10;99.90;;;;;;5074799;28;20450;-86
2023/05/07 06:30:16;;;;;;;2.27;1.30;;;19.30;99.90;;;;;;5074588;28;20453;-86
2023/05/07 06:32:45;;;;;;;2.03;1.20;;;19.40;99.90;;;;;;5074447;28;20497;-86
2023/05/07 06:35:11;;;;;;;1.40;1.30;;;19.60;99.90;;;;;;5074445;28;20450;-86
2023/05/07 06:37:39;;;;;;;1.13;1.03;;;19.60;99.90;;;;;;5074371;28;20444;-86
2023/05/07 06:40:07;;;;;;;2.20;1.53;;;19.40;99.90;;;;;;5074288;28;20997;-86
2023/05/07 06:42:34;;;;;;;1.80;1.70;;;19.20;99.90;;;;;;5073855;28;20880;-86
2023/05/07 06:45:01;;;;;;;1.53;1.03;;;19.30;99.90;;;;;;5074289;28;20453;-86
2023/05/07 06:47:27;;;;;;;2.00;1.80;;;19.50;99.90;;;;;;5073847;28;20835;-87
2023/05/07 06:49:56;;;;;;;1.40;1.30;;;19.90;99.90;;;;;;5073834;28;20449;-86
2023/05/07 06:52:22;;;;;;;1.10;1.10;;;20.10;99.90;;;;;;5073924;28;20476;-86
2023/05/07 06:54:49;;;;;;;1.30;1.20;;;20.20;99.90;;;;;;5073838;28;20430;-87
2023/05/07 06:57:16;;;;;;;1.47;1.37;;;20.70;99.90;;;;;;5074104;28;20453;-87
2023/05/07 06:59:42;;;;;;;1.20;1.07;;;21.50;99.90;;;;;;5073712;28;21015;-86
2023/05/07 07:02:09;;;;;;;2.00;1.43;;;22.10;99.90;;;;;;5073769;28;20484;-88
2023/05/07 07:04:36;;;;;;;2.17;1.37;;;22.50;99.90;;;;;;5074173;28;20460;-87
2023/05/07 07:07:04;;;;;;;1.33;1.23;;;22.90;99.90;;;;;;5074013;28;20445;-87
2023/05/07 07:09:30;;;;;;;1.63;1.53;;;23.30;99.90;;;;;;5073990;28;20448;-87
2023/05/07 07:11:57;;;;;;;1.03;1.03;;;23.70;99.90;;;;;;5073839;28;20480;-87
2023/05/07 07:14:24;;;;;;;1.20;1.10;;;24.40;99.90;;;;;;5073881;28;20665;-86
2023/05/07 07:16:51;;;;;;;1.13;1.05;;;24.70;99.90;;;;;;5073982;28;20293;-87
2023/05/07 07:19:17;;;;;;;1.10;1.00;;;25.20;99.90;;;;;;5073679;28;20305;-87
2023/05/07 07:21:44;;;;;;;2.28;1.40;;;25.90;99.90;;;;;;5073181;28;20226;-86
2023/05/07 07:24:18;;;;;;;1.50;1.40;;;26.10;99.90;;;;;;5073349;28;20796;-87
2023/05/07 07:26:45;;;;;;;1.30;1.30;;;26.10;99.90;;;;;;5073738;28;20186;-86
2023/05/07 07:29:12;;;;;;;1.48;1.38;;;25.90;99.80;;;;;;5073822;28;20198;-86
2023/05/07 07:31:39;;;;;;;0.88;0.88;;;26.00;98.80;;;;;;5073379;28;20590;-87
2023/05/07 07:34:05;;;;;;;1.25;1.15;;;26.20;99.40;;;;;;5073546;28;20210;-86
2023/05/07 07:36:32;;;;;;;1.17;1.00;;;26.70;98.00;;;;;;5073473;28;20565;-88
2023/05/07 07:38:59;;;;;;;3.05;1.15;;;27.10;96.50;;;;;;5073423;28;20222;-87
2023/05/07 07:41:27;;;;;;;0.93;0.93;;;27.10;96.10;;;;;;5073825;28;20202;-86
2023/05/07 07:43:54;;;;;;;0.80;0.80;;;27.20;96.50;;;;;;5073143;28;20195;-86
2023/05/07 07:46:21;;;;;;;1.95;0.93;;;27.00;94.80;;;;;;5073061;28;20199;-86
2023/05/07 07:48:47;;;;;;;1.95;1.55;;;26.50;94.90;;;;;;5073641;28;20312;-87
2023/05/07 07:51:14;;;;;;;1.23;1.23;;;26.20;95.70;;;;;;5073043;28;20532;-87
2023/05/07 07:53:41;;;;;;;1.15;1.15;;;26.50;96.40;;;;;;5073526;28;20222;-87
2023/05/07 07:56:08;;;;;;;2.28;1.65;;;27.10;95.00;;;;;;5077340;28;20682;-87
2023/05/07 07:58:37;;;;;;;0.80;0.80;;;28.20;93.40;;;;;;5077230;28;20666;-86
2023/05/07 08:01:04;;;;;;;1.08;1.02;;;29.10;92.20;;;;;;5077015;28;20313;-87
2023/05/07 08:03:32;;;;;;;1.65;0.90;;;30.30;90.30;;;;;;5076949;28;20706;-87
2023/05/07 08:05:59;;;;;;;1.90;1.10;;;31.60;83.40;;;;;;5077253;28;20211;-86
2023/05/07 08:08:26;;;;;;;0.90;0.90;;;33.00;76.10;;;;;;5077126;28;20201;-87
2023/05/07 08:10:53;;;;;;;0.88;0.88;;;33.40;72.60;;;;;;5077387;28;20206;-86
2023/05/07 08:13:20;;;;;;;1.05;1.00;;;32.80;67.90;;;;;;5076810;28;20214;-86
2023/05/07 08:15:48;;;;;;;0.70;0.70;;;32.10;67.50;;;;;;5077154;28;20206;-86
2023/05/07 08:18:15;;;;;;;1.20;1.17;;;31.30;69.60;;;;;;5076979;28;20212;-86
2023/05/07 08:20:42;;;;;;;1.08;0.90;;;30.80;71.60;;;;;;5076612;28;20393;-87
2023/05/07 08:23:09;;;;;;;1.38;1.27;;;30.10;72.30;;;;;;5076988;28;20589;-87
2023/05/07 08:25:35;;;;;;;1.00;0.90;;;29.30;74.10;;;;;;5076879;28;20203;-86
2023/05/07 08:28:03;;;;;;;0.85;0.85;;;28.70;73.90;;;;;;5078677;28;20581;-86
2023/05/07 08:30:29;;;;;;;1.00;1.00;;;28.30;73.90;;;;;;5076619;28;20211;-87
2023/05/07 08:32:57;;;;;;;0.73;0.73;;;27.90;76.00;;;;;;5076698;28;20222;-86
2023/05/07 08:35:25;;;;;;;0.80;0.80;;;27.60;76.00;;;;;;5076473;28;20199;-86
2023/05/07 08:37:52;;;;;;;1.25;1.15;;;27.20;77.80;;;;;;5076384;28;20207;-87
2023/05/07 08:40:19;;;;;;;0.80;0.70;;;26.50;78.50;;;;;;5076341;28;20226;-86
2023/05/07 08:42:49;;;;;;;1.35;1.00;;;26.30;78.00;;;;;;5077205;28;20245;-86
2023/05/07 08:45:18;;;;;;;0.90;0.80;;;26.10;79.50;;;;;;5080163;28;20190;-85
2023/05/07 08:47:47;;;;;;;0.80;0.80;;;25.90;81.20;;;;;;5076529;28;20190;-85
2023/05/07 08:50:16;;;;;;;1.20;1.08;;;25.80;80.70;;;;;;5076055;28;20198;-86
2023/05/07 08:52:42;;;;;;;0.80;0.80;;;25.90;82.30;;;;;;5075901;28;20230;-85
2023/05/07 08:55:10;;;;;;;1.10;1.10;;;25.80;82.50;;;;;;5076309;28;20207;-85
2023/05/07 08:57:37;;;;;;;1.17;1.08;;;25.60;82.30;;;;;;5076290;28;20206;-86
2023/05/07 09:00:07;;;;;;;0.90;0.90;;;25.20;85.40;;;;;;5075917;28;20697;-86
2023/05/07 09:02:34;;;;;;;1.00;1.00;;;25.40;84.10;;;;;;5075656;28;20291;-85
2023/05/07 09:05:01;;;;;;;1.23;1.20;;;25.50;83.00;;;;;;5075728;28;20238;-85
2023/05/07 09:07:29;;;;;;;1.20;1.10;;;25.40;84.60;;;;;;5076022;28;20206;-86
2023/05/07 09:09:56;;;;;;;1.45;1.08;;;25.40;86.70;;;;;;5076090;28;20220;-86
2023/05/07 09:12:23;;;;;;;1.00;1.00;;;25.40;85.00;;;;;;5075828;28;20576;-86
2023/05/07 09:14:50;;;;;;;1.23;1.23;;;25.40;86.90;;;;;;5075991;28;20209;-86
2023/05/07 09:17:17;;;;;;;1.30;1.20;;;25.40;86.60;;;;;;5075937;28;20229;-86
2023/05/07 09:19:45;;;;;;;1.13;1.05;;;25.40;85.20;;;;;;5075646;28;20227;-86
2023/05/07 09:22:12;;;;;;;1.80;1.00;;;25.20;87.20;;;;;;5075872;28;20635;-86
2023/05/07 09:24:40;;;;;;;1.50;1.10;;;25.00;86.90;;;;;;5075786;28;20183;-86
2023/05/07 09:27:09;;;;;;;1.17;1.00;;;24.90;86.50;;;;;;5075607;28;20211;-85
2023/05/07 09:29:36;;;;;;;1.75;1.10;;;24.90;87.60;;;;;;5075608;28;20229;-86
2023/05/07 09:32:04;;;;;;;1.70;1.60;;;24.90;87.50;;;;;;5075176;28;20233;-85
2023/05/07 09:34:30;;;;;;;1.17;1.08;;;24.80;90.00;;;;;;5075745;28;20202;-86
2023/05/07 09:36:58;;;;;;;1.30;1.30;;;24.70;90.00;;;;;;5075539;28;20195;-86
2023/05/07 09:39:24;;;;;;;1.27;1.17;;;24.90;89.30;;;;;;5075687;28;20198;-86
2023/05/07 09:41:54;;;;;;;1.33;1.20;;;25.00;88.40;;;;;;5075484;28;20231;-85
2023/05/07 09:44:21;;;;;;;1.67;1.13;;;25.00;88.70;;;;;;5075385;28;20203;-85
2023/05/07 09:46:54;;;;;;;1.38;1.27;;;25.00;90.20;;;;;;5075422;28;20202;-85
2023/05/07 09:49:22;;;;;;;1.33;1.02;;;25.10;89.90;;;;;;5075306;28;20191;-87
2023/05/07 09:51:50;;;;;;;1.30;1.20;;;25.10;90.40;;;;;;5075157;28;20211;-88
2023/05/07 09:54:18;;;;;;;1.20;1.20;;;25.20;88.70;;;;;;5075537;28;20199;-88
2023/05/07 09:56:45;;;;;;;1.10;1.00;;;25.30;88.10;;;;;;5075533;28;20191;-88
2023/05/07 09:59:16;;;;;;;1.48;1.38;;;25.20;87.60;;;;;;5075420;28;20203;-87
2023/05/07 10:01:44;;;;;;;1.15;1.13;;;25.20;89.00;;;;;;5074759;28;20737;-86
2023/05/07 10:04:12;;;;;;;1.20;1.10;;;25.20;89.00;;;;;;5075278;28;20213;-87
2023/05/07 10:06:39;;;;;;;1.58;1.27;;;25.20;88.00;;;;;;5075062;28;20198;-88
2023/05/07 10:09:06;;;;;;;1.20;1.13;;;25.20;89.20;;;;;;5075271;28;20203;-88
2023/05/07 10:11:33;;;;;;;1.40;1.30;;;25.20;89.40;;;;;;5075110;28;20202;-88
2023/05/07 10:14:01;;;;;;;1.00;1.00;;;25.20;88.30;;;;;;5075133;28;20294;-88
2023/05/07 10:16:31;;;;;;;1.95;1.00;;;25.20;87.90;;;;;;5074425;28;20211;-88
2023/05/07 10:18:58;;;;;;;1.27;1.15;;;25.10;89.30;;;;;;5075049;28;20202;-87
2023/05/07 10:21:27;;;;;;;1.70;0.98;;;25.00;89.90;;;;;;5074502;28;20222;-88
2023/05/07 10:23:59;;;;;;;0.80;0.80;;;25.10;90.70;;;;;;5074715;28;20191;-87
2023/05/07 10:26:28;;;;;;;1.10;1.00;;;25.10;90.00;;;;;;5074834;28;20195;-88
2023/05/07 10:29:00;;;;;;;1.20;1.05;;;25.40;89.30;;;;;;5074798;28;20207;-88
2023/05/07 10:31:54;;;;;;;1.25;1.10;;;25.60;86.80;;;;;;5074844;28;20217;-87
2023/05/07 10:34:25;;;;;;;2.05;1.10;;;25.50;86.50;;;;;;5074591;28;20267;-88
2023/05/07 10:36:53;;;;;;;1.67;1.58;;;25.60;86.30;;;;;;5074677;28;20206;-87
2023/05/07 10:39:21;;;;;;;1.20;1.10;;;25.60;87.80;;;;;;5074285;28;20202;-87
2023/05/07 10:41:49;;;;;;;1.10;1.00;;;25.70;87.50;;;;;;5075798;28;20233;-87
2023/05/07 10:44:26;;;;;;;1.60;1.50;;;25.70;88.80;;;;;;5074817;28;20214;-87
2023/05/07 10:47:09;;;;;;;1.00;1.00;;;25.90;87.40;;;;;;5075131;28;20214;-87
2023/05/07 10:49:37;;;;;;;1.15;1.05;;;26.00;85.10;;;;;;5074145;28;20592;-87
2023/05/07 10:52:18;;;;;;;2.42;1.00;;;26.50;84.20;;;;;;5074385;28;20226;-88
2023/05/07 10:54:46;;;;;;;0.95;0.95;;;26.90;82.50;;;;;;5074289;28;20186;-87
2023/05/07 10:57:43;;;;;;;1.52;1.00;;;27.30;78.50;;;;;;5074428;28;20229;-88
2023/05/07 11:00:43;;;;;;;0.73;0.73;;;27.60;79.10;;;;;;5012241;28;20604;-87
2023/05/07 11:03:11;;;;;;;1.10;1.00;;;27.60;78.50;;;;;;5073468;28;20235;-87
2023/05/07 11:05:39;;;;;;;2.00;1.00;;;27.30;80.30;;;;;;5073937;28;20187;-87
2023/05/07 11:08:06;;;;;;;0.90;0.90;;;27.00;79.10;;;;;;5074128;28;20213;-85
2023/05/07 11:10:49;;;;;;;0.90;0.90;;;26.70;81.40;;;;;;5073887;28;20294;-86
2023/05/07 11:13:16;;;;;;;1.10;1.00;;;26.50;81.00;;;;;;5073872;28;20314;-87
2023/05/07 11:15:45;;;;;;;1.33;1.17;;;26.30;79.90;;;;;;5073919;28;20206;-86
2023/05/07 11:18:15;;;;;;;4.40;0.85;;;26.10;81.10;;;;;;5073728;28;20209;-86
2023/05/07 11:20:53;;;;;;;1.10;1.10;;;26.00;81.70;;;;;;5073362;28;20678;-86
2023/05/07 11:23:57;;;;;;;1.02;1.02;;;25.80;81.60;;;;;;5073405;28;20226;-86
2023/05/07 11:26:25;;;;;;;1.30;1.20;;;25.60;84.40;;;;;;5073868;28;20277;-86
2023/05/07 11:28:52;;;;;;;0.80;0.80;;;25.30;84.40;;;;;;5073853;28;20207;-88
2023/05/07 11:31:23;;;;;;;1.10;1.08;;;25.20;82.30;;;;;;5073476;28;20198;-87
2023/05/07 11:33:52;;;;;;;1.05;1.05;;;24.90;82.60;;;;;;5073285;28;20240;-86
2023/05/07 11:36:20;;;;;;;1.05;0.90;;;24.80;82.70;;;;;;5073292;28;20199;-85
2023/05/07 11:38:47;;;;;;;1.15;1.05;;;24.70;85.50;;;;;;5073278;28;20273;-85
2023/05/07 11:41:14;;;;;;;0.88;0.80;;;24.60;85.20;;;;;;5073289;28;20226;-85
2023/05/07 11:43:55;;;;;;;0.80;0.80;;;24.50;84.00;;;;;;5073328;28;20229;-85
2023/05/07 11:46:22;;;;;;;1.00;1.00;;;24.40;82.90;;;;;;5073138;28;20225;-85
2023/05/07 11:48:49;;;;;;;1.55;1.17;;;24.20;85.40;;;;;;5073359;28;20205;-86
2023/05/07 11:51:20;;;;;;;1.50;1.20;;;24.00;88.10;;;;;;5073316;28;20198;-85
2023/05/07 11:53:47;;;;;;;1.27;0.80;;;23.90;91.50;;;;;;5073017;28;20670;-85
2023/05/07 11:56:15;;;;;;;1.40;1.13;;;23.70;90.80;;;;;;5073410;28;20557;-86
2023/05/07 11:58:42;;;;;;;1.70;1.60;;;23.50;90.60;;;;;;5073232;28;20562;-85
2023/05/07 12:01:10;;;;;;;1.00;1.00;;;23.40;91.40;;;;;;5072581;28;20231;-85
2023/05/07 12:03:38;;;;;;;1.43;1.33;;;23.10;92.60;;;;;;5072840;28;20710;-86
2023/05/07 12:06:07;;;;;;;1.60;1.50;;;22.80;93.60;;;;;;5073135;28;20268;-86
2023/05/07 12:08:38;;;;;;;1.40;1.30;;;22.50;94.90;;;;;;5073278;28;20213;-86
2023/05/07 12:11:07;;;;;;;1.73;1.00;;;22.40;95.60;;;;;;5073228;28;20218;-87
2023/05/07 12:13:34;;;;;;;2.10;0.90;;;22.20;93.40;;;;;;5073191;28;20226;-87
2023/05/07 12:16:03;;;;;;;1.97;0.80;;;21.90;93.70;;;;;;5073538;28;20824;-87
2023/05/07 12:18:30;;;;;;;0.50;0.50;;;21.30;95.20;;;;;;5074386;28;20480;-89
2023/05/07 12:20:57;;;;;;;0.57;0.57;;;20.60;98.20;;;;;;5073308;28;20512;-87
2023/05/07 12:23:24;;;;;;;0.70;0.70;;;19.90;98.20;;;;;;5073316;28;20469;-88
2023/05/07 12:25:52;;;;;;;3.97;1.10;;;19.30;99.90;;;;;;5073528;28;20495;-88
2023/05/07 12:28:20;;;;;;;0.70;0.70;;;18.90;99.90;;;;;;5073362;28;20456;-88
2023/05/07 12:30:48;;;;;;;0.67;0.60;;;18.60;99.90;;;;;;5073312;28;20521;-88
2023/05/07 12:33:17;;;;;;;1.03;1.03;;;18.30;99.90;;;;;;5073215;28;20469;-85
2023/05/07 12:35:44;;;;;;;0.80;0.70;;;18.10;99.90;;;;;;5073362;28;20961;-85
2023/05/07 12:38:13;;;;;;;1.83;0.50;;;17.90;99.90;;;;;;5073658;28;20446;-85
2023/05/07 12:40:41;;;;;;;0.90;0.73;;;17.80;99.90;;;;;;5074916;28;20526;-85
2023/05/07 12:43:17;;;;;;;0.77;0.60;;;17.60;99.90;;;;;;5076690;28;20976;-85
2023/05/07 12:45:44;;;;;;;0.93;0.90;;;17.50;99.90;;;;;;5077532;28;20468;-85
2023/05/07 12:48:12;;;;;;;0.87;0.70;;;17.50;99.90;;;;;;5076646;28;20452;-85
2023/05/07 12:50:39;;;;;;;2.10;1.10;;;17.40;99.90;;;;;;5076962;28;20441;-85
2023/05/07 12:53:07;;;;;;;3.60;0.93;;;17.30;99.90;;;;;;5076440;28;20976;-85